Time;durP1;ratioP1;P1;durP2;ratioP2;P2;SDS_P1;SDS_P2;PMS_P1;PMS_P2;Temp;Humidity;BMP_temperature;BMP_pressure;BME280_temperature;BME280_humidity;BME280_pressure;Samples;Min_cycle;Max_cycle;Signal;HPM_P1;HPM_P2
2022/05/02 00:01:19;;;;;;;19.55;15.40;;;;;;;12.50;60.76;100174.66;5053616;28;20025;-84
2022/05/02 00:03:44;;;;;;;19.33;16.58;;;;;;;12.49;60.88;100172.97;5053475;28;20029;-85
2022/05/02 00:06:10;;;;;;;18.88;16.88;;;;;;;12.49;60.67;100170.28;5052110;28;20029;-86
2022/05/02 00:08:35;;;;;;;18.45;16.45;;;;;;;12.51;60.95;100167.47;5052821;28;20036;-83
2022/05/02 00:11:01;;;;;;;19.02;16.08;;;;;;;12.52;60.87;100169.16;5053294;28;20032;-81
2022/05/02 00:13:26;;;;;;;20.60;17.35;;;;;;;12.46;60.73;100175.94;5053119;28;20481;-82
2022/05/02 00:15:51;;;;;;;18.45;15.52;;;;;;;12.36;61.00;100166.22;5053261;28;20028;-83
2022/05/02 00:18:17;;;;;;;21.63;16.08;;;;;;;12.35;61.26;100168.06;5052816;28;20053;-82
2022/05/02 00:20:42;;;;;;;19.35;15.25;;;;;;;12.36;61.00;100172.44;5052894;28;20375;-84
2022/05/02 00:23:09;;;;;;;18.75;16.75;;;;;;;12.15;61.11;100161.03;5052729;28;20044;-84
2022/05/02 00:25:34;;;;;;;19.80;15.77;;;;;;;12.24;61.32;100161.00;5034913;28;20025;-86
2022/05/02 00:28:00;;;;;;;21.38;17.27;;;;;;;12.24;60.83;100165.53;5051525;28;20048;-83
2022/05/02 00:30:25;;;;;;;19.90;16.70;;;;;;;12.19;61.57;100162.41;5051688;28;20044;-84
2022/05/02 00:32:51;;;;;;;22.02;16.40;;;;;;;12.14;61.64;100165.53;5051514;28;20032;-84
2022/05/02 00:35:16;;;;;;;20.08;16.90;;;;;;;12.19;61.40;100162.41;5035100;28;20379;-84
2022/05/02 00:37:44;;;;;;;20.17;16.95;;;;;;;12.16;61.20;100160.03;5034680;28;20024;-85
2022/05/02 00:40:12;;;;;;;18.90;16.85;;;;;;;12.14;61.36;100157.50;5034732;28;20073;-85
2022/05/02 00:42:37;;;;;;;18.70;16.57;;;;;;;12.13;61.32;100149.59;5051696;28;20021;-85
2022/05/02 00:45:07;;;;;;;17.83;15.90;;;;;;;12.11;61.10;100154.25;5051488;28;20130;-84
2022/05/02 00:47:33;;;;;;;19.73;17.15;;;;;;;12.09;61.15;100153.56;5050839;28;20017;-85
2022/05/02 00:49:58;;;;;;;20.17;16.60;;;;;;;11.97;61.65;100150.19;5051003;28;20540;-85
2022/05/02 00:52:23;;;;;;;20.38;16.85;;;;;;;12.00;61.34;100144.53;5052143;28;20115;-84
2022/05/02 00:54:49;;;;;;;18.67;16.67;;;;;;;12.00;61.62;100147.22;5052183;28;20505;-85
2022/05/02 00:57:16;;;;;;;18.17;16.15;;;;;;;12.02;61.55;100147.91;5050933;28;20467;-84
2022/05/02 00:59:41;;;;;;;21.42;16.52;;;;;;;12.01;61.35;100143.53;5051139;28;20119;-81
2022/05/02 01:02:08;;;;;;;19.40;16.40;;;;;;;12.04;61.38;100142.41;5052058;28;20108;-83
2022/05/02 01:04:34;;;;;;;17.33;15.45;;;;;;;12.02;61.22;100139.03;5052020;28;20048;-84
2022/05/02 01:07:11;;;;;;;18.83;15.88;;;;;;;12.00;61.63;100139.16;5033993;28;20029;-84
2022/05/02 01:09:42;;;;;;;17.77;15.88;;;;;;;11.94;61.58;100143.28;5035996;28;20075;-83
2022/05/02 01:12:24;;;;;;;17.83;15.98;;;;;;;11.90;61.96;100136.50;5034400;28;20021;-83
2022/05/02 01:14:52;;;;;;;18.23;15.85;;;;;;;11.86;62.01;100131.56;5034449;28;20596;-83
2022/05/02 01:17:17;;;;;;;18.97;16.93;;;;;;;11.83;62.23;100135.38;5033750;28;20466;-84
2022/05/02 01:19:43;;;;;;;17.65;15.80;;;;;;;11.80;62.04;100137.47;5051070;28;20083;-85
2022/05/02 01:22:08;;;;;;;18.55;16.60;;;;;;;11.78;62.07;100128.72;5033946;28;20219;-81
2022/05/02 01:24:42;;;;;;;17.55;15.65;;;;;;;11.80;62.18;100132.09;5034012;28;20482;-84
2022/05/02 01:27:09;;;;;;;17.60;15.70;;;;;;;11.76;62.19;100130.66;5033580;28;20036;-85
2022/05/02 01:29:35;;;;;;;17.60;15.65;;;;;;;11.71;62.58;100119.53;5034079;28;20033;-84
2022/05/02 01:32:02;;;;;;;19.58;16.42;;;;;;;11.71;62.42;100120.38;5051866;28;20032;-84
2022/05/02 01:34:28;;;;;;;18.30;15.90;;;;;;;11.78;62.34;100120.69;5050436;28;20024;-84
2022/05/02 01:36:53;;;;;;;20.30;16.60;;;;;;;11.78;62.00;100121.53;5050086;28;20471;-84
2022/05/02 01:39:18;;;;;;;20.85;16.55;;;;;;;11.78;62.04;100126.03;5051855;28;20078;-85
2022/05/02 01:41:44;;;;;;;18.02;16.13;;;;;;;11.71;62.07;100117.69;5050692;28;20021;-85
2022/05/02 01:44:09;;;;;;;19.05;16.80;;;;;;;11.71;62.42;100122.22;5051745;28;20017;-83
2022/05/02 01:46:35;;;;;;;18.63;16.58;;;;;;;11.65;62.45;100124.47;5051270;28;20488;-84
2022/05/02 01:49:00;;;;;;;18.10;16.17;;;;;;;11.63;62.35;100120.25;5051604;28;20465;-85
2022/05/02 01:51:25;;;;;;;20.42;16.10;;;;;;;11.56;62.86;100119.97;5051579;28;20021;-85
2022/05/02 01:53:51;;;;;;;19.10;16.70;;;;;;;11.42;63.11;100120.38;5033673;28;20076;-84
2022/05/02 01:56:16;;;;;;;19.88;17.02;;;;;;;11.38;63.30;100121.63;5033723;28;20029;-86
2022/05/02 01:58:42;;;;;;;19.73;16.27;;;;;;;11.44;63.73;100107.69;5050348;28;20025;-85
2022/05/02 02:01:07;;;;;;;20.77;17.02;;;;;;;11.51;63.02;100116.00;5033784;28;20029;-84
2022/05/02 02:03:33;;;;;;;18.63;16.38;;;;;;;11.48;63.16;100105.56;5050243;28;20041;-86
2022/05/02 02:05:59;;;;;;;17.83;15.95;;;;;;;11.45;63.06;100100.50;5050438;28;20099;-84
2022/05/02 02:08:27;;;;;;;19.25;16.02;;;;;;;11.46;62.95;100104.88;5035766;28;20119;-84
2022/05/02 02:10:55;;;;;;;20.50;16.88;;;;;;;11.44;63.44;100101.50;5037622;28;20037;-85
2022/05/02 02:13:21;;;;;;;20.20;17.02;;;;;;;11.45;63.17;100097.81;5054475;28;20382;-84
2022/05/02 02:15:47;;;;;;;21.08;17.77;;;;;;;11.42;63.31;100101.63;5054245;28;20043;-84
2022/05/02 02:18:12;;;;;;;19.73;17.58;;;;;;;11.43;63.29;100102.47;5055216;28;20036;-84
2022/05/02 02:20:38;;;;;;;19.45;16.83;;;;;;;11.40;63.31;100094.72;5055269;28;20036;-86
2022/05/02 02:23:03;;;;;;;19.00;17.00;;;;;;;11.40;63.47;100100.06;5054124;28;20036;-84
2022/05/02 02:25:29;;;;;;;20.35;17.52;;;;;;;11.38;63.49;100099.38;5053891;28;20028;-84
2022/05/02 02:27:54;;;;;;;19.40;17.23;;;;;;;11.37;63.31;100097.69;5055013;28;20159;-85
2022/05/02 02:30:20;;;;;;;22.15;18.92;;;;;;;11.38;63.41;100094.03;5053165;28;20068;-86
2022/05/02 02:32:45;;;;;;;19.90;17.73;;;;;;;11.35;63.68;100101.34;5036673;28;20033;-84
2022/05/02 02:35:11;;;;;;;22.40;18.17;;;;;;;11.28;64.07;100097.50;5055311;28;20021;-85
2022/05/02 02:37:37;;;;;;;20.90;18.20;;;;;;;11.32;64.23;100088.22;5054737;28;20070;-84
2022/05/02 02:40:03;;;;;;;22.92;19.05;;;;;;;11.27;64.36;100087.78;5055087;28;20039;-86
2022/05/02 02:42:28;;;;;;;20.95;18.10;;;;;;;11.27;64.17;100090.47;5037084;28;20498;-84
2022/05/02 02:44:53;;;;;;;19.77;17.70;;;;;;;11.29;64.00;100088.50;5053475;28;20061;-85
2022/05/02 02:47:18;;;;;;;21.63;17.88;;;;;;;11.30;64.30;100083.97;5054549;28;20021;-82
2022/05/02 02:49:44;;;;;;;18.10;16.17;;;;;;;11.29;64.39;100083.13;5055212;28;20060;-85
2022/05/02 02:52:09;;;;;;;19.27;16.88;;;;;;;11.31;64.33;100091.03;5053323;28;20099;-84
2022/05/02 02:54:35;;;;;;;19.52;17.45;;;;;;;11.32;64.20;100088.22;5054845;28;20021;-82
2022/05/02 02:57:00;;;;;;;19.63;16.67;;;;;;;11.33;64.08;100087.22;5053147;28;20052;-84
2022/05/02 02:59:26;;;;;;;19.75;16.80;;;;;;;11.28;64.12;100086.78;5054564;28;20029;-83
2022/05/02 03:01:51;;;;;;;21.00;18.35;;;;;;;11.27;64.24;100073.56;5054471;28;20029;-84
2022/05/02 03:07:01;;;;;;;19.92;17.20;;;;;;;11.24;64.70;100076.50;5053108;28;20533;-86
2022/05/02 03:09:28;;;;;;;20.20;17.45;;;;;;;11.24;64.94;100079.19;5053176;28;20029;-85
2022/05/02 03:11:53;;;;;;;21.70;17.88;;;;;;;11.24;64.69;100089.88;5036544;28;20234;-85
2022/05/02 03:14:19;;;;;;;20.92;17.00;;;;;;;11.29;64.71;100084.97;5052806;28;20025;-85
2022/05/02 03:16:44;;;;;;;24.13;17.58;;;;;;;11.29;64.54;100076.94;5036090;28;20036;-84
2022/05/02 03:19:09;;;;;;;26.02;19.55;;;;;;;11.28;64.64;100075.25;5035083;28;20029;-84
2022/05/02 03:21:34;;;;;;;37.72;20.05;;;;;;;11.23;64.87;100077.50;5052738;28;20043;-85
2022/05/02 03:24:00;;;;;;;26.40;17.77;;;;;;;11.25;65.05;100070.16;5036214;28;20451;-84
2022/05/02 03:26:25;;;;;;;23.50;17.67;;;;;;;11.15;65.50;100069.31;5052779;28;20428;-83
2022/05/02 03:28:50;;;;;;;28.25;17.95;;;;;;;11.16;65.19;100073.69;5053863;28;20033;-81
2022/05/02 03:31:16;;;;;;;29.67;18.63;;;;;;;11.14;65.36;100063.13;5053996;28;20040;-86
2022/05/02 03:33:41;;;;;;;22.30;17.23;;;;;;;11.08;65.08;100070.84;5054133;28;20036;-84
2022/05/02 03:36:06;;;;;;;18.75;16.33;;;;;;;11.07;65.02;100067.34;5053938;28;20526;-84
2022/05/02 03:38:32;;;;;;;19.80;17.50;;;;;;;10.85;65.56;100062.19;5052214;28;20033;-84
2022/05/02 03:40:57;;;;;;;19.83;16.73;;;;;;;10.81;66.34;100066.13;5054080;28;20666;-85
2022/05/02 03:43:23;;;;;;;20.45;17.00;;;;;;;10.94;65.68;100069.44;5053661;28;20025;-85
2022/05/02 03:45:48;;;;;;;24.73;17.13;;;;;;;10.99;65.40;100062.69;5053776;28;20025;-84
2022/05/02 03:48:13;;;;;;;34.58;18.55;;;;;;;11.01;65.19;100062.53;5053409;28;20033;-85
2022/05/02 03:50:38;;;;;;;28.20;18.25;;;;;;;11.00;65.21;100068.88;5052218;28;20466;-86
2022/05/02 03:53:04;;;;;;;31.00;18.30;;;;;;;10.94;65.38;100064.06;5053455;28;20399;-84
2022/05/02 03:55:29;;;;;;;27.55;18.17;;;;;;;10.89;65.16;100059.13;5052332;28;20021;-85
2022/05/02 03:57:55;;;;;;;25.38;18.35;;;;;;;10.79;65.55;100060.06;5052217;28;20420;-84
2022/05/02 04:00:20;;;;;;;26.05;17.42;;;;;;;10.84;65.80;100061.34;5053486;28;20079;-84
2022/05/02 04:02:46;;;;;;;27.48;18.75;;;;;;;10.83;65.38;100061.50;5052367;28;20063;-85
2022/05/02 04:05:11;;;;;;;31.92;18.38;;;;;;;10.78;65.40;100064.56;5053799;28;20364;-87
2022/05/02 04:07:37;;;;;;;26.00;17.85;;;;;;;10.78;65.55;100059.22;5051936;28;20017;-86
2022/05/02 04:10:03;;;;;;;25.55;17.80;;;;;;;10.77;65.76;100064.72;5053583;28;20086;-86
2022/05/02 04:12:34;;;;;;;26.20;18.65;;;;;;;10.82;65.63;100065.16;5052291;28;20143;-86
2022/05/02 04:15:00;;;;;;;28.35;19.15;;;;;;;10.79;65.02;100060.91;5035357;28;20025;-86
2022/05/02 04:17:25;;;;;;;28.55;19.30;;;;;;;10.84;65.37;100069.38;5035145;28;20352;-87
2022/05/02 04:19:50;;;;;;;29.98;19.40;;;;;;;10.82;65.44;100066.00;5052236;28;20017;-86
2022/05/02 04:22:16;;;;;;;27.55;19.73;;;;;;;10.81;65.66;100066.97;5053191;28;20036;-87
2022/05/02 04:24:41;;;;;;;25.60;18.95;;;;;;;10.79;65.72;100076.97;5051859;28;20424;-86
2022/05/02 04:27:06;;;;;;;26.60;20.20;;;;;;;10.80;65.84;100072.47;5034875;28;20084;-86
2022/05/02 04:29:32;;;;;;;24.50;19.75;;;;;;;10.76;65.87;100071.88;5034927;28;20467;-85
2022/05/02 04:31:57;;;;;;;25.65;20.10;;;;;;;10.72;66.25;100067.78;5034663;28;20076;-86
2022/05/02 04:34:22;;;;;;;25.77;20.23;;;;;;;10.51;66.92;100073.22;5052921;28;20033;-85
2022/05/02 04:36:48;;;;;;;26.38;18.50;;;;;;;10.61;66.54;100071.44;5051409;28;20048;-86
2022/05/02 04:39:13;;;;;;;26.92;19.55;;;;;;;10.64;66.24;100068.47;5035050;28;20056;-86
2022/05/02 04:41:38;;;;;;;24.00;19.90;;;;;;;10.66;66.53;100077.22;5051431;28;20080;-87
2022/05/02 04:44:04;;;;;;;23.10;19.95;;;;;;;10.69;66.22;100073.41;5035052;28;20036;-87
2022/05/02 04:46:29;;;;;;;23.98;19.55;;;;;;;10.70;66.57;100077.78;5051496;28;20050;-86
2022/05/02 04:48:55;;;;;;;22.88;18.65;;;;;;;10.71;66.67;100071.44;5034871;28;20067;-87
2022/05/02 04:51:20;;;;;;;21.45;18.25;;;;;;;10.72;66.29;100070.47;5051631;28;20470;-87
2022/05/02 04:53:45;;;;;;;21.25;18.92;;;;;;;10.65;66.95;100077.34;5032925;28;20526;-85
2022/05/02 04:56:11;;;;;;;24.52;19.55;;;;;;;10.71;66.60;100079.47;5046588;28;20082;-86
2022/05/02 04:58:36;;;;;;;23.48;19.73;;;;;;;10.74;66.59;100079.19;5024231;28;20025;-86
2022/05/02 05:01:05;;;;;;;24.88;19.52;;;;;;;10.64;66.66;100087.19;5031480;28;20033;-86
2022/05/02 05:03:30;;;;;;;28.40;19.95;;;;;;;10.54;67.33;100082.81;5013685;28;20593;-87
2022/05/02 05:05:56;;;;;;;24.10;19.38;;;;;;;10.47;67.82;100078.97;5013658;28;20125;-86
2022/05/02 05:08:22;;;;;;;24.55;19.42;;;;;;;10.53;67.84;100081.94;5041958;28;20252;-86
2022/05/02 05:10:54;;;;;;;26.08;18.90;;;;;;;10.62;67.65;100086.50;5050316;28;20100;-87
2022/05/02 05:13:24;;;;;;;25.50;19.58;;;;;;;10.64;67.58;100086.34;5050706;28;20036;-86
2022/05/02 05:16:21;;;;;;;21.05;18.58;;;;;;;10.63;67.43;100085.50;5047283;28;20112;-87
2022/05/02 05:19:14;;;;;;;21.38;18.40;;;;;;;10.68;67.38;100088.63;5017098;28;20065;-86
2022/05/02 05:21:45;;;;;;;23.08;18.98;;;;;;;10.71;67.05;100088.34;5048735;28;20033;-86
2022/05/02 05:24:27;;;;;;;29.08;20.27;;;;;;;10.70;67.37;100096.50;5030031;28;20025;-86
2022/05/02 05:27:17;;;;;;;28.75;19.52;;;;;;;10.51;67.93;100091.94;5049246;28;20060;-87
2022/05/02 05:30:03;;;;;;;25.08;18.80;;;;;;;10.43;68.65;100082.91;5046556;28;20029;-86
2022/05/02 05:32:40;;;;;;;26.92;20.08;;;;;;;10.48;68.75;100080.66;5046557;28;20045;-86
2022/05/02 05:35:10;;;;;;;23.95;19.08;;;;;;;10.58;68.23;100082.38;5032685;28;20355;-85
2022/05/02 05:37:47;;;;;;;23.80;18.27;;;;;;;10.63;68.21;100074.81;5033930;28;20110;-87
2022/05/02 05:40:20;;;;;;;22.60;18.42;;;;;;;10.60;68.45;100076.91;5050717;28;20071;-86
2022/05/02 05:43:10;;;;;;;25.92;19.30;;;;;;;10.62;68.35;100075.78;5047045;28;20746;-86
2022/05/02 05:46:09;;;;;;;23.50;19.35;;;;;;;10.56;68.39;100086.19;5050001;28;20029;-88
2022/05/02 05:48:43;;;;;;;26.35;19.80;;;;;;;10.54;68.29;100083.66;5051357;28;20037;-88
2022/05/02 05:51:23;;;;;;;25.88;19.90;;;;;;;10.53;68.59;100078.44;5034444;28;20029;-88
2022/05/02 05:54:23;;;;;;;22.33;18.77;;;;;;;10.51;69.27;100080.41;5017663;28;20045;-89
2022/05/02 05:57:15;;;;;;;23.58;20.15;;;;;;;10.71;68.88;100082.16;5040307;28;20116;-88
2022/05/02 06:00:09;;;;;;;24.98;19.63;;;;;;;10.83;68.39;100088.25;5055775;28;20010;-87
2022/05/02 06:03:05;;;;;;;26.30;21.40;;;;;;;10.81;68.25;100084.84;5061093;28;20009;-86
2022/05/02 06:05:43;;;;;;;26.23;20.95;;;;;;;10.86;68.62;100093.31;5037325;28;20084;-87
2022/05/02 06:08:35;;;;;;;23.98;21.02;;;;;;;11.01;68.23;100084.78;5048961;28;20037;-87
2022/05/02 06:13:45;;;;;;;25.90;21.98;;;;;;;11.12;68.11;100091.00;5191668;22;20064;-87
2022/05/02 06:18:57;;;;;;;28.13;22.10;;;;;;;10.97;68.74;100096.75;5066093;28;20072;-87
2022/05/02 06:21:23;;;;;;;28.63;22.67;;;;;;;10.96;69.39;100100.41;5055278;28;20017;-87
2022/05/02 06:31:48;;;;;;;25.73;21.50;;;;;;;10.71;70.12;100095.53;529119;26;20312;-83
2022/05/02 06:34:15;;;;;;;24.83;21.35;;;;;;;10.86;70.38;100091.47;5071065;28;20045;-87
2022/05/02 06:36:57;;;;;;;25.15;20.45;;;;;;;10.87;69.91;100093.19;5054412;28;20051;-87
2022/05/02 06:39:30;;;;;;;23.85;19.17;;;;;;;10.96;69.88;100104.91;5047786;28;20036;-86
2022/05/02 06:55:04;;;;;;;26.00;21.05;;;;;;;11.11;69.56;100098.19;5094646;28;20067;-87
2022/05/02 06:58:11;;;;;;;25.88;20.33;;;;;;;11.10;69.60;100106.34;5080506;28;20020;-87
2022/05/02 07:00:52;;;;;;;23.10;20.45;;;;;;;11.13;70.14;100092.69;5058215;28;20537;-91
2022/05/02 07:03:44;;;;;;;24.67;20.77;;;;;;;11.10;69.68;100099.16;5040429;28;20017;-90
2022/05/02 07:06:20;;;;;;;23.30;19.98;;;;;;;11.15;69.96;100096.94;5021932;28;20029;-91
2022/05/02 07:08:56;;;;;;;27.00;20.20;;;;;;;11.17;70.06;100104.81;5048684;28;20032;-91
2022/05/02 07:11:22;;;;;;;24.58;20.08;;;;;;;11.13;70.49;100101.56;5042200;28;20025;-92
2022/05/02 07:14:00;;;;;;;22.98;19.75;;;;;;;11.15;70.27;100101.44;5033981;28;20070;-90
2022/05/02 07:16:26;;;;;;;;;;;;;;;11.15;70.25;100104.97;5059234;28;20020;-92
2022/05/02 07:19:27;;;;;;;25.33;20.38;;;;;;;11.18;70.68;100107.34;5058593;28;19958;-89
2022/05/02 07:21:55;;;;;;;23.55;18.60;;;;;;;11.19;69.95;100102.84;5056353;28;20025;-89
2022/05/02 07:24:39;;;;;;;23.45;18.80;;;;;;;11.46;70.29;100100.38;5035836;28;20029;-85
2022/05/02 07:27:20;;;;;;;25.05;20.02;;;;;;;11.35;70.00;100103.16;5053876;28;20049;-85
2022/05/02 07:29:47;;;;;;;22.17;18.20;;;;;;;11.39;70.08;100101.06;5036338;28;20422;-86
2022/05/02 07:32:13;;;;;;;26.05;20.23;;;;;;;11.44;70.40;100098.81;5019635;28;20475;-85
2022/05/02 07:34:39;;;;;;;24.25;19.67;;;;;;;11.44;70.21;100102.34;5019402;28;20068;-85
2022/05/02 07:37:05;;;;;;;24.48;19.88;;;;;;;11.42;70.14;100100.78;5035797;28;20120;-86
2022/05/02 07:39:31;;;;;;;22.77;18.58;;;;;;;11.40;69.89;100105.44;5019590;28;20035;-85
2022/05/02 07:42:00;;;;;;;25.75;19.33;;;;;;;11.43;69.60;100100.66;5019446;28;20112;-86
2022/05/02 07:44:31;;;;;;;21.90;19.58;;;;;;;11.29;69.48;100106.38;5019442;28;20383;-87
2022/05/02 07:46:58;;;;;;;23.60;19.35;;;;;;;11.28;70.10;100108.22;5019509;28;20017;-86
2022/05/02 07:49:26;;;;;;;21.98;18.27;;;;;;;11.34;69.96;100110.34;5015805;28;20068;-86
2022/05/02 07:51:52;;;;;;;22.77;18.70;;;;;;;11.47;70.25;100114.59;5032256;28;20166;-85
2022/05/02 07:54:26;;;;;;;25.48;18.63;;;;;;;11.51;70.01;100108.81;5015721;28;20037;-85
2022/05/02 07:56:57;;;;;;;23.58;18.30;;;;;;;11.45;70.63;100112.06;5010288;28;20017;-87
2022/05/02 07:59:24;;;;;;;23.35;18.15;;;;;;;11.49;70.43;100113.47;5013844;28;20016;-87
2022/05/02 08:01:50;;;;;;;22.70;18.85;;;;;;;11.52;71.09;100110.50;5024477;28;20021;-86
2022/05/02 08:04:15;;;;;;;23.85;17.95;;;;;;;11.59;70.79;100108.13;5027035;28;20382;-87
2022/05/02 08:06:46;;;;;;;20.25;16.83;;;;;;;11.58;70.34;100112.63;5018224;28;20467;-87
2022/05/02 08:09:39;;;;;;;20.38;17.92;;;;;;;11.54;70.32;100108.53;5014829;28;20034;-87
2022/05/02 08:12:27;;;;;;;20.88;16.85;;;;;;;11.55;70.06;100101.34;5015803;28;20479;-86
2022/05/02 08:15:12;;;;;;;21.40;15.80;;;;;;;11.59;69.79;100108.97;5016251;28;20506;-85
2022/05/02 08:18:25;;;;;;;19.38;15.10;;;;;;;11.62;70.04;100103.31;5015457;28;20475;-86
2022/05/02 08:20:56;;;;;;;16.83;13.38;;;;;;;11.68;69.40;100100.06;4971794;28;20033;-86
2022/05/02 08:27:15;;;;;;;17.92;12.57;;;;;;;11.76;67.60;100098.53;5052800;28;20529;-86
2022/05/02 08:30:05;;;;;;;15.18;11.82;;;;;;;11.78;67.24;100099.25;5052397;28;20044;-87
2022/05/02 08:32:41;;;;;;;18.48;12.52;;;;;;;11.78;67.11;100099.25;5018858;28;20060;-86
2022/05/02 08:35:08;;;;;;;16.00;12.45;;;;;;;11.78;66.48;100094.75;5018231;28;20033;-87
2022/05/02 08:37:49;;;;;;;16.83;12.18;;;;;;;11.83;66.79;100100.56;5034014;28;20094;-86
2022/05/02 08:40:27;;;;;;;16.90;12.20;;;;;;;11.94;66.83;100100.38;5035051;28;20036;-87
2022/05/02 08:43:10;;;;;;;14.70;10.77;;;;;;;12.05;66.26;100101.22;5029398;28;20431;-87
2022/05/02 08:45:51;;;;;;;15.50;12.10;;;;;;;12.08;65.61;100098.25;5014680;28;20055;-87
2022/05/02 08:49:32;;;;;;;13.18;11.73;;;;;;;12.08;66.12;100088.38;5023161;28;20039;-87
2022/05/02 08:51:42;;;;;;;14.48;11.48;;;;;;;12.11;65.53;100093.44;5048573;28;20044;-86
2022/05/02 08:54:31;;;;;;;15.13;10.93;;;;;;;12.11;65.14;100088.09;5034414;28;20049;-87
2022/05/02 08:57:34;;;;;;;16.70;11.38;;;;;;;12.12;64.48;100084.41;4999840;28;20026;-86
2022/05/02 09:00:09;;;;;;;14.10;10.68;;;;;;;12.18;65.43;100081.16;5032660;28;20486;-86
2022/05/02 09:02:52;;;;;;;13.30;10.88;;;;;;;12.23;65.09;100086.91;5012295;28;20029;-87
2022/05/02 09:05:40;;;;;;;13.77;10.88;;;;;;;12.24;64.54;100082.41;5021495;28;20036;-88
2022/05/02 09:08:34;;;;;;;11.90;9.68;;;;;;;12.32;64.23;100085.22;5017295;28;20441;-86
2022/05/02 09:11:32;;;;;;;12.43;9.65;;;;;;;12.48;63.35;100081.91;5030184;28;20082;-88
2022/05/02 09:14:03;;;;;;;;;;;;;;;12.50;63.12;100080.78;5034269;28;20084;-89
2022/05/02 09:16:53;;;;;;;11.85;9.25;;;;;;;12.56;63.01;100076.66;5052203;28;19916;-88
2022/05/02 09:19:31;;;;;;;12.90;10.15;;;;;;;12.54;62.78;100075.97;5018681;28;20163;-88
2022/05/02 09:22:21;;;;;;;12.50;10.60;;;;;;;12.50;62.36;100077.25;5035493;28;20052;-88
2022/05/02 09:25:05;;;;;;;14.98;10.70;;;;;;;12.51;62.70;100078.94;5020979;28;20083;-93
2022/05/02 09:27:36;;;;;;;12.07;10.68;;;;;;;12.60;62.73;100081.56;5036659;28;20028;-95
2022/05/02 09:30:11;;;;;;;12.27;10.98;;;;;;;12.57;61.97;100075.66;5021098;28;20017;-93
2022/05/02 09:33:03;;;;;;;12.02;10.25;;;;;;;12.57;61.35;100075.66;5057832;28;20028;-95
2022/05/02 09:35:31;;;;;;;12.02;10.18;;;;;;;12.58;61.35;100072.84;5037793;28;20041;-92
2022/05/02 09:37:57;;;;;;;12.40;9.75;;;;;;;12.63;61.35;100077.75;5036885;28;20037;-94
2022/05/02 09:40:43;;;;;;;10.52;9.43;;;;;;;12.60;61.15;100076.22;5019915;28;20033;-96
2022/05/02 09:49:52;;;;;;;14.45;11.05;;;;;;;12.74;60.65;100066.81;5052122;28;20098;-89
2022/05/02 09:52:26;;;;;;;12.85;9.73;;;;;;;12.77;61.20;100063.00;5016113;28;20025;-89
2022/05/02 09:58:20;;;;;;;16.65;10.88;;;;;;;12.86;59.82;100060.28;5038664;28;20537;-91
2022/05/02 10:01:23;;;;;;;14.40;11.68;;;;;;;12.79;60.15;100056.50;5019378;28;20062;-88
2022/05/02 10:04:26;;;;;;;14.23;11.27;;;;;;;12.79;60.77;100053.81;4995121;28;20118;-90
2022/05/02 10:06:53;;;;;;;14.73;11.80;;;;;;;12.82;59.97;100050.00;5035670;28;20386;-88
2022/05/02 10:09:42;;;;;;;12.13;10.82;;;;;;;12.87;59.91;100051.25;5035711;28;20029;-88
2022/05/02 10:12:16;;;;;;;14.57;10.85;;;;;;;12.87;60.38;100048.56;5019421;28;20497;-89
2022/05/02 10:15:02;;;;;;;14.73;11.25;;;;;;;12.93;60.10;100057.84;5053968;28;20025;-91
2022/05/02 10:18:02;;;;;;;13.15;10.65;;;;;;;12.89;60.36;100045.72;5036046;28;20018;-92
2022/05/02 10:21:08;;;;;;;13.80;11.18;;;;;;;12.92;60.16;100054.31;5035892;28;20074;-91
2022/05/02 10:23:55;;;;;;;14.02;12.18;;;;;;;13.05;60.27;100051.25;5053655;28;20032;-91
2022/05/02 10:26:39;;;;;;;14.85;11.77;;;;;;;13.05;60.95;100047.72;5053962;28;20086;-91
2022/05/02 10:29:10;;;;;;;12.95;10.63;;;;;;;13.12;61.44;100043.44;5037544;28;20056;-90
2022/05/02 10:31:36;;;;;;;17.70;13.75;;;;;;;13.12;60.79;100048.81;5057671;28;20067;-91
2022/05/02 10:34:03;;;;;;;15.77;12.70;;;;;;;13.15;60.04;100045.81;5023317;28;20028;-90
2022/05/02 10:36:33;;;;;;;19.55;16.58;;;;;;;13.22;59.60;100045.09;5039809;28;20033;-91
2022/05/02 10:39:03;;;;;;;20.20;16.90;;;;;;;13.21;58.64;100046.09;5023113;28;20105;-91
2022/05/02 10:41:48;;;;;;;19.48;15.98;;;;;;;13.20;59.18;100047.06;5024095;28;20427;-91
2022/05/02 10:44:17;;;;;;;17.63;14.52;;;;;;;13.23;59.37;100043.25;5023818;28;20107;-90
2022/05/02 10:46:46;;;;;;;17.08;14.57;;;;;;;13.19;59.60;100040.03;5022753;28;20032;-91
2022/05/02 10:49:53;;;;;;;13.35;11.95;;;;;;;13.16;59.90;100029.56;5019357;28;20030;-91
2022/05/02 10:52:32;;;;;;;20.08;14.98;;;;;;;13.22;59.01;100025.44;5019574;28;20116;-89
2022/05/02 10:55:05;;;;;;;16.33;14.27;;;;;;;13.23;59.55;100022.59;5019872;28;20398;-91
2022/05/02 10:57:36;;;;;;;21.05;17.77;;;;;;;13.36;58.70;100024.94;5019472;28;20352;-92
2022/05/02 11:00:06;;;;;;;19.42;15.85;;;;;;;13.45;58.84;100026.69;5019463;28;20025;-91
2022/05/02 11:02:51;;;;;;;15.98;13.55;;;;;;;13.50;58.48;100023.53;5035985;28;20041;-91
2022/05/02 11:05:22;;;;;;;15.98;12.88;;;;;;;13.52;58.96;100017.00;5036316;28;20041;-90
2022/05/02 11:08:07;;;;;;;16.48;13.57;;;;;;;13.53;59.77;100021.38;5002963;28;20025;-91
2022/05/02 11:11:11;;;;;;;15.82;13.40;;;;;;;13.62;59.09;100014.22;5030929;28;20087;-92
2022/05/02 11:13:52;;;;;;;17.42;15.52;;;;;;;13.70;58.18;100010.75;5038126;28;20434;-91
2022/05/02 11:16:26;;;;;;;17.90;16.00;;;;;;;13.67;58.33;100011.91;5022561;28;20079;-91
2022/05/02 11:22:00;;;;;;;16.80;14.73;;;;;;;13.73;59.49;99994.34;5042155;28;20036;-91
2022/05/02 11:24:36;;;;;;;19.95;15.85;;;;;;;13.77;59.38;99995.72;5038963;28;20032;-90
2022/05/02 11:27:21;;;;;;;18.77;14.90;;;;;;;13.90;58.74;99993.44;5039596;28;20082;-93
2022/05/02 11:30:02;;;;;;;18.40;15.23;;;;;;;14.06;57.99;99996.22;5023338;28;20036;-93
2022/05/02 11:32:51;;;;;;;19.70;15.13;;;;;;;14.15;57.63;100000.63;5023398;28;20021;-93
2022/05/02 11:35:24;;;;;;;15.38;13.70;;;;;;;14.05;56.96;99989.16;5038553;28;20035;-94
2022/05/02 11:38:17;;;;;;;16.20;14.45;;;;;;;13.98;57.79;99995.34;5038975;28;20044;-94
2022/05/02 11:40:46;;;;;;;15.45;13.50;;;;;;;14.09;58.20;99997.75;5037009;28;20087;-90
2022/05/02 11:43:12;;;;;;;;;;;;;;;14.02;58.14;99996.69;5022300;28;20036;-90
2022/05/02 11:45:45;;;;;;;13.85;12.05;;;;;;;14.00;59.01;99994.19;5021824;28;19913;-91
2022/05/02 11:48:14;;;;;;;15.25;13.65;;;;;;;14.07;57.66;99997.91;5038810;28;20059;-91
2022/05/02 11:50:44;;;;;;;14.50;12.52;;;;;;;14.04;58.18;100000.91;5056294;28;20021;-91
2022/05/02 11:53:13;;;;;;;13.55;11.85;;;;;;;14.01;58.26;100003.94;5038115;28;20182;-91
2022/05/02 11:55:40;;;;;;;13.80;12.07;;;;;;;14.04;57.86;99992.84;5039320;28;20032;-89
2022/05/02 11:58:13;;;;;;;17.83;13.55;;;;;;;14.23;57.73;99990.97;5023366;28;20036;-90
2022/05/02 12:00:41;;;;;;;14.18;12.48;;;;;;;14.34;57.41;99996.91;5038118;28;20116;-89
2022/05/02 12:03:14;;;;;;;18.23;13.02;;;;;;;14.27;57.74;100001.22;5037930;28;20029;-88
2022/05/02 12:05:46;;;;;;;15.75;14.05;;;;;;;14.31;57.10;99996.38;5020991;28;20498;-89
2022/05/02 12:08:25;;;;;;;16.65;14.27;;;;;;;14.37;56.85;99993.03;5021022;28;20037;-91
2022/05/02 12:11:06;;;;;;;15.95;13.32;;;;;;;14.26;57.23;99994.16;5037875;28;20466;-88
2022/05/02 12:13:36;;;;;;;13.50;11.77;;;;;;;14.20;57.89;99981.38;5021095;28;20029;-87
2022/05/02 12:16:13;;;;;;;14.50;12.45;;;;;;;14.35;57.40;99986.97;5020972;28;20028;-88
2022/05/02 12:18:45;;;;;;;15.73;12.95;;;;;;;14.63;56.79;99979.53;5036978;28;20021;-88
2022/05/02 12:21:23;;;;;;;15.32;12.63;;;;;;;14.51;57.19;99980.84;5037085;28;20457;-89
2022/05/02 12:23:50;;;;;;;15.40;12.95;;;;;;;14.59;56.79;99975.47;5020786;28;20037;-86